createdAt,value
2023-08-17T00:02:11.310Z,11.48
2023-08-17T00:05:00.169Z,11.40
2023-08-17T00:07:48.963Z,11.90
2023-08-17T00:10:42.379Z,11.23
2023-08-17T00:13:31.630Z,11.68
2023-08-17T00:16:20.735Z,11.77
2023-08-17T00:19:09.689Z,11.85
2023-08-17T00:21:58.709Z,11.48
2023-08-17T00:24:47.665Z,11.63
2023-08-17T00:27:38.180Z,12.05
2023-08-17T00:30:27.076Z,12.77
2023-08-17T00:33:15.851Z,12.45
2023-08-17T00:36:05.838Z,11.32
2023-08-17T00:38:59.050Z,12.18
2023-08-17T00:41:47.928Z,11.90
2023-08-17T00:44:38.425Z,11.68
2023-08-17T00:47:27.744Z,12.23
2023-08-17T00:50:17.348Z,11.95
2023-08-17T00:53:06.630Z,12.10
2023-08-17T00:55:56.575Z,11.98
2023-08-17T00:58:45.833Z,11.43
2023-08-17T01:01:36.300Z,12.68
2023-08-17T01:04:25.331Z,11.93
2023-08-17T01:07:14.167Z,11.75
2023-08-17T01:10:04.421Z,12.45
2023-08-17T01:13:00.699Z,12.27
2023-08-17T01:15:54.069Z,11.70
2023-08-17T01:18:47.606Z,11.85
2023-08-17T01:21:43.285Z,12.13
2023-08-17T01:24:34.132Z,12.65
2023-08-17T01:27:23.237Z,12.05
2023-08-17T01:30:14.233Z,12.40
2023-08-17T01:33:09.056Z,12.55
2023-08-17T01:36:07.743Z,13.25
2023-08-17T01:38:59.565Z,12.15
2023-08-17T01:41:50.324Z,11.90
2023-08-17T01:44:39.842Z,12.18
2023-08-17T01:47:29.444Z,12.40
2023-08-17T01:50:18.422Z,12.07
2023-08-17T01:53:07.343Z,13.05
2023-08-17T01:55:56.707Z,12.52
2023-08-17T01:58:48.092Z,12.18
2023-08-17T02:01:36.970Z,12.73
2023-08-17T02:04:27.559Z,12.45
2023-08-17T02:07:16.241Z,11.73
2023-08-17T02:10:05.431Z,12.38
2023-08-17T02:13:02.075Z,13.35
2023-08-17T02:15:59.096Z,11.98
2023-08-17T02:18:47.912Z,13.13
2023-08-17T02:21:36.842Z,12.45
2023-08-17T02:24:26.041Z,11.57
2023-08-17T02:27:15.851Z,11.82
2023-08-17T02:30:05.358Z,12.57
2023-08-17T02:32:56.225Z,11.77
2023-08-17T02:35:45.210Z,12.32
2023-08-17T02:38:34.167Z,12.77
2023-08-17T02:41:23.000Z,12.95
2023-08-17T02:44:11.977Z,12.50
2023-08-17T02:47:01.004Z,12.10
2023-08-17T02:49:51.903Z,12.02
2023-08-17T02:52:40.823Z,12.13
2023-08-17T02:55:29.723Z,13.07
2023-08-17T02:58:18.613Z,12.57
2023-08-17T03:01:07.575Z,12.13
2023-08-17T03:03:56.982Z,12.20
2023-08-17T03:06:47.391Z,13.73
2023-08-17T03:09:36.169Z,13.18
2023-08-17T03:12:24.998Z,13.00
2023-08-17T03:15:13.768Z,13.18
2023-08-17T03:18:03.074Z,13.40
2023-08-17T03:20:51.942Z,13.05
2023-08-17T03:23:43.036Z,13.05
2023-08-17T03:26:31.933Z,13.25
2023-08-17T03:29:21.190Z,13.07
2023-08-17T03:32:10.034Z,13.10
2023-08-17T03:34:58.973Z,14.27
2023-08-17T03:37:48.148Z,12.80
2023-08-17T03:40:38.648Z,13.57
2023-08-17T03:43:28.238Z,13.43
2023-08-17T03:46:16.993Z,13.43
2023-08-17T03:49:06.082Z,13.75
2023-08-17T03:51:55.222Z,13.35
2023-08-17T03:54:43.949Z,12.82
2023-08-17T03:57:35.469Z,13.50
2023-08-17T04:00:25.833Z,12.60
2023-08-17T04:03:19.825Z,13.07
2023-08-17T04:06:11.337Z,13.60
2023-08-17T04:09:00.132Z,13.73
2023-08-17T04:11:48.834Z,13.70
2023-08-17T04:14:41.123Z,13.50
2023-08-17T04:17:30.576Z,13.20
2023-08-17T04:20:20.583Z,12.57
2023-08-17T04:23:09.306Z,12.75
2023-08-17T04:25:58.057Z,13.20
2023-08-17T04:28:46.963Z,13.55
2023-08-17T04:31:39.144Z,13.55
2023-08-17T04:34:27.926Z,12.80
2023-08-17T04:37:17.285Z,12.27
2023-08-17T04:40:07.127Z,12.13
2023-08-17T04:42:56.841Z,11.90
2023-08-17T04:45:49.151Z,11.77
2023-08-17T04:48:40.456Z,12.23
2023-08-17T04:51:29.503Z,12.93
2023-08-17T04:54:19.416Z,12.27
2023-08-17T04:57:08.371Z,12.50
2023-08-17T04:59:58.110Z,11.90
2023-08-17T05:02:47.158Z,11.50
2023-08-17T05:05:38.601Z,11.63
2023-08-17T05:08:31.278Z,13.70
2023-08-17T05:11:20.196Z,10.82
2023-08-17T05:14:09.616Z,10.75
2023-08-17T05:16:59.049Z,11.50
2023-08-17T05:19:47.816Z,10.35
2023-08-17T05:22:38.997Z,10.45
2023-08-17T05:25:27.687Z,11.15
2023-08-17T05:28:16.464Z,10.77
2023-08-17T05:31:08.694Z,11.05
2023-08-17T05:34:01.420Z,11.00
2023-08-17T05:36:50.283Z,10.50
2023-08-17T05:39:40.565Z,10.63
2023-08-17T05:42:29.361Z,10.15
2023-08-17T05:45:18.497Z,9.90
2023-08-17T05:48:08.137Z,9.73
2023-08-17T05:50:58.593Z,9.77
2023-08-17T05:53:47.280Z,9.98
2023-08-17T05:56:37.529Z,9.95
2023-08-17T05:59:26.384Z,8.82
2023-08-17T06:02:15.140Z,8.73
2023-08-17T06:05:04.542Z,8.80
2023-08-17T06:07:56.089Z,9.25
2023-08-17T06:10:44.840Z,9.52
2023-08-17T06:13:36.588Z,9.27
2023-08-17T06:16:25.698Z,8.93
2023-08-17T06:19:14.767Z,9.40
2023-08-17T06:22:03.947Z,9.57
2023-08-17T06:24:52.767Z,8.75
2023-08-17T06:27:44.597Z,8.93
2023-08-17T06:30:35.221Z,9.13
2023-08-17T06:33:25.260Z,9.65
2023-08-17T06:36:17.648Z,9.95
2023-08-17T06:39:06.863Z,9.45
2023-08-17T06:41:56.543Z,9.85
2023-08-17T06:44:45.702Z,9.98
2023-08-17T06:47:36.227Z,9.68
2023-08-17T06:50:25.132Z,9.50
2023-08-17T06:53:14.383Z,10.02
2023-08-17T06:56:03.856Z,9.77
2023-08-17T06:58:52.970Z,10.02
2023-08-17T07:01:44.852Z,9.70
2023-08-17T07:04:35.656Z,9.50
2023-08-17T07:07:24.893Z,9.10
2023-08-17T07:10:14.473Z,9.30
2023-08-17T07:13:04.813Z,9.68
2023-08-17T07:15:54.282Z,9.57
2023-08-17T07:18:43.318Z,9.63
2023-08-17T07:21:33.910Z,9.70
2023-08-17T07:24:23.217Z,9.70
2023-08-17T07:27:12.323Z,9.75
2023-08-17T07:30:01.400Z,10.50
2023-08-17T07:32:50.197Z,9.48
2023-08-17T07:35:39.488Z,10.20
2023-08-17T07:38:30.079Z,10.05
2023-08-17T07:41:20.613Z,9.68
2023-08-17T07:44:10.061Z,9.57
2023-08-17T07:47:00.249Z,8.82
2023-08-17T07:49:49.929Z,9.40
2023-08-17T07:52:39.102Z,9.15
2023-08-17T07:55:30.280Z,8.93
2023-08-17T07:58:19.267Z,9.73
2023-08-17T08:01:08.358Z,9.85
2023-08-17T08:03:57.605Z,10.18
2023-08-17T08:06:46.711Z,9.73
2023-08-17T08:09:35.841Z,10.10
2023-08-17T08:12:26.363Z,10.48
2023-08-17T08:15:15.544Z,9.40
2023-08-17T08:18:05.765Z,10.32
2023-08-17T08:20:55.404Z,10.70
2023-08-17T08:23:44.369Z,10.40
2023-08-17T08:26:33.881Z,10.20
2023-08-17T08:29:24.203Z,9.85
2023-08-17T08:32:13.468Z,9.75
2023-08-17T08:35:02.760Z,9.80
2023-08-17T08:37:51.598Z,10.43
2023-08-17T08:40:43.386Z,9.57
2023-08-17T08:43:33.268Z,9.95
2023-08-17T08:46:26.180Z,9.32
2023-08-17T08:49:18.795Z,8.55
2023-08-17T08:52:10.963Z,8.55
2023-08-17T08:55:01.219Z,9.15
2023-08-17T08:57:52.295Z,9.10
2023-08-17T09:00:42.512Z,9.02
2023-08-17T09:03:35.290Z,9.15
2023-08-17T09:06:25.667Z,9.38
2023-08-17T09:09:17.327Z,9.35
2023-08-17T09:12:08.643Z,8.75
2023-08-17T09:14:57.558Z,9.65
2023-08-17T09:17:46.532Z,9.88
2023-08-17T09:23:37.482Z,9.13
2023-08-17T09:26:26.731Z,9.10
2023-08-17T09:29:20.390Z,9.30
2023-08-17T09:32:11.525Z,9.00
2023-08-17T09:35:02.827Z,9.05
2023-08-17T09:37:55.517Z,9.00
2023-08-17T09:40:45.518Z,8.95
2023-08-17T09:43:35.299Z,8.35
2023-08-17T09:46:25.394Z,8.00
2023-08-17T09:49:14.296Z,8.55
2023-08-17T09:52:04.107Z,7.47
2023-08-17T09:54:57.096Z,7.97
2023-08-17T09:57:46.355Z,8.20
2023-08-17T10:00:36.420Z,7.03
2023-08-17T10:03:27.017Z,7.47
2023-08-17T10:06:18.620Z,7.10
2023-08-17T10:09:09.498Z,7.63
2023-08-17T10:12:02.263Z,7.60
2023-08-17T10:14:57.929Z,7.43
2023-08-17T10:17:55.806Z,6.95
2023-08-17T10:20:52.227Z,7.07
2023-08-17T10:23:43.084Z,7.10
2023-08-17T10:26:32.788Z,6.50
2023-08-17T10:29:25.115Z,6.70
2023-08-17T10:32:17.174Z,5.60
2023-08-17T10:35:08.407Z,5.90
2023-08-17T10:37:57.425Z,6.43
2023-08-17T10:40:46.775Z,5.70
2023-08-17T10:43:36.311Z,5.95
2023-08-17T10:46:35.521Z,5.18
2023-08-17T10:49:29.400Z,4.25
2023-08-17T10:52:31.603Z,4.70
2023-08-17T10:55:38.785Z,5.35
2023-08-17T10:58:27.660Z,4.68
2023-08-17T11:01:22.474Z,4.82
2023-08-17T11:04:14.359Z,3.95
2023-08-17T11:07:05.282Z,6.13
2023-08-17T11:09:57.227Z,4.22
2023-08-17T11:12:46.490Z,4.63
2023-08-17T11:15:40.434Z,3.47
2023-08-17T11:18:29.719Z,3.15
2023-08-17T11:21:20.957Z,3.40
2023-08-17T11:24:12.171Z,3.30
2023-08-17T11:27:01.526Z,6.22
2023-08-17T11:29:50.677Z,3.35
2023-08-17T11:32:40.916Z,3.42
2023-08-17T11:35:30.278Z,3.20
2023-08-17T11:38:21.204Z,29.08
2023-08-17T11:41:18.449Z,5.30
2023-08-17T11:44:11.894Z,3.78
2023-08-17T11:47:02.581Z,3.08
2023-08-17T11:49:52.710Z,3.45
2023-08-17T11:52:46.361Z,3.17
2023-08-17T11:55:37.931Z,2.92
2023-08-17T11:58:40.205Z,2.90
2023-08-17T12:01:29.441Z,2.85
2023-08-17T12:04:19.377Z,2.92
2023-08-17T12:07:09.011Z,2.83
2023-08-17T12:09:58.589Z,2.85
2023-08-17T12:12:50.503Z,2.70
2023-08-17T12:15:42.239Z,2.78
2023-08-17T12:18:37.330Z,3.05
2023-08-17T12:21:32.432Z,3.05
2023-08-17T12:24:22.283Z,3.13
2023-08-17T12:27:12.029Z,3.20
2023-08-17T12:30:03.277Z,2.80
2023-08-17T12:32:58.413Z,3.40
2023-08-17T12:35:47.906Z,3.10
2023-08-17T12:38:39.389Z,3.80
2023-08-17T12:41:29.152Z,3.42
2023-08-17T12:44:18.182Z,3.67
2023-08-17T12:47:08.785Z,3.65
2023-08-17T12:49:57.588Z,3.30
2023-08-17T12:52:47.642Z,3.33
2023-08-17T12:55:38.045Z,3.70
2023-08-17T12:58:26.987Z,3.40
2023-08-17T13:01:16.219Z,6.22
2023-08-17T13:04:07.245Z,3.63
2023-08-17T13:06:56.942Z,3.60
2023-08-17T13:09:47.698Z,3.70
2023-08-17T13:12:36.674Z,3.55
2023-08-17T13:15:25.666Z,3.95
2023-08-17T13:18:14.678Z,3.75
2023-08-17T13:21:05.374Z,3.70
2023-08-17T13:23:55.300Z,3.45
2023-08-17T13:26:46.238Z,3.80
2023-08-17T13:29:36.833Z,3.95
2023-08-17T13:32:25.979Z,4.35
2023-08-17T13:35:16.307Z,4.13
2023-08-17T13:38:07.050Z,4.75
2023-08-17T13:40:56.434Z,4.22
2023-08-17T13:43:45.675Z,4.13
2023-08-17T13:46:34.893Z,4.22
2023-08-17T13:49:23.746Z,3.72
2023-08-17T13:52:12.605Z,3.90
2023-08-17T13:55:02.829Z,3.65
2023-08-17T13:57:54.156Z,3.70
2023-08-17T14:00:43.192Z,4.38
2023-08-17T14:03:34.565Z,4.30
2023-08-17T14:06:23.597Z,4.10
2023-08-17T14:09:12.902Z,3.63
2023-08-17T14:12:03.739Z,4.38
2023-08-17T14:14:52.878Z,4.30
2023-08-17T14:17:42.072Z,4.20
2023-08-17T14:20:31.403Z,4.05
2023-08-17T14:23:20.372Z,4.43
2023-08-17T14:26:09.678Z,4.40
2023-08-17T14:29:00.141Z,4.40
2023-08-17T14:31:49.283Z,4.25
2023-08-17T14:34:38.288Z,4.05
2023-08-17T14:37:27.203Z,4.15
2023-08-17T14:40:16.337Z,5.88
2023-08-17T14:43:05.473Z,7.68
2023-08-17T14:45:56.520Z,5.78
2023-08-17T14:48:45.713Z,4.85
2023-08-17T14:51:39.731Z,4.10
2023-08-17T14:54:29.324Z,4.40
2023-08-17T14:57:19.272Z,4.38
2023-08-17T15:03:07.178Z,4.65
2023-08-17T15:05:56.640Z,4.28
2023-08-17T15:08:45.503Z,4.28
2023-08-17T15:11:34.252Z,4.53
2023-08-17T15:14:23.571Z,4.50
2023-08-17T15:17:13.840Z,4.82
2023-08-17T15:20:05.065Z,4.63
2023-08-17T15:22:54.289Z,5.18
2023-08-17T15:25:43.185Z,4.75
2023-08-17T15:28:33.270Z,4.28
2023-08-17T15:31:22.277Z,4.07
2023-08-17T15:34:11.164Z,3.95
2023-08-17T15:37:01.836Z,4.25
2023-08-17T15:39:50.654Z,6.93
2023-08-17T15:42:39.601Z,7.50
2023-08-17T15:45:28.404Z,4.70
2023-08-17T15:48:17.485Z,4.65
2023-08-17T15:51:06.455Z,3.90
2023-08-17T15:53:59.126Z,4.10
2023-08-17T15:56:47.914Z,4.32
2023-08-17T15:59:37.317Z,4.30
2023-08-17T16:02:26.488Z,4.50
2023-08-17T16:05:15.385Z,3.88
2023-08-17T16:08:04.656Z,3.67
2023-08-17T16:10:55.375Z,3.90
2023-08-17T16:13:47.003Z,3.72
2023-08-17T16:16:36.113Z,4.22
2023-08-17T16:19:24.901Z,4.00
2023-08-17T16:22:17.182Z,3.63
2023-08-17T16:25:07.402Z,4.57
2023-08-17T16:27:58.117Z,4.85
2023-08-17T16:30:47.599Z,4.40
2023-08-17T16:33:37.675Z,3.83
2023-08-17T16:36:26.434Z,3.72
2023-08-17T16:39:15.460Z,4.47
2023-08-17T16:42:04.979Z,4.07
2023-08-17T16:44:56.124Z,4.53
2023-08-17T16:47:45.206Z,4.88
2023-08-17T16:50:34.574Z,4.38
2023-08-17T16:53:23.432Z,4.32
2023-08-17T16:56:12.194Z,4.40
2023-08-17T16:59:02.636Z,4.88
2023-08-17T17:01:57.592Z,5.68
2023-08-17T17:04:46.464Z,6.50
2023-08-17T17:07:36.077Z,5.15
2023-08-17T17:10:24.967Z,6.05
2023-08-17T17:13:13.645Z,5.03
2023-08-17T17:16:02.972Z,4.65
2023-08-17T17:18:56.016Z,5.72
2023-08-17T17:21:44.728Z,4.57
2023-08-17T17:24:33.705Z,5.32
2023-08-17T17:27:22.554Z,6.78
2023-08-17T17:30:12.333Z,7.07
2023-08-17T17:33:01.064Z,10.68
2023-08-17T17:35:51.364Z,15.35
2023-08-17T17:38:40.988Z,8.43
2023-08-17T17:41:29.868Z,9.88
2023-08-17T17:44:18.641Z,7.30
2023-08-17T17:47:08.008Z,8.38
2023-08-17T17:49:56.971Z,7.38
2023-08-17T17:52:48.749Z,6.38
2023-08-17T17:55:37.726Z,6.20
2023-08-17T17:58:26.714Z,6.47
2023-08-17T18:01:15.820Z,5.97
2023-08-17T18:04:05.308Z,6.22
2023-08-17T18:06:54.807Z,6.32
2023-08-17T18:09:45.001Z,6.80
2023-08-17T18:12:33.896Z,6.68
2023-08-17T18:15:22.967Z,7.32
2023-08-17T18:18:11.907Z,7.15
2023-08-17T18:21:01.415Z,7.57
2023-08-17T18:23:51.833Z,7.18
2023-08-17T18:26:41.867Z,6.93
2023-08-17T18:29:30.750Z,7.22
2023-08-17T18:32:19.597Z,7.13
2023-08-17T18:35:09.562Z,7.25
2023-08-17T18:37:58.253Z,7.47
2023-08-17T18:40:47.909Z,6.63
2023-08-17T18:43:38.097Z,6.93
2023-08-17T18:46:26.893Z,7.75
2023-08-17T18:49:16.368Z,8.00
2023-08-17T18:52:07.539Z,9.10
2023-08-17T18:55:01.641Z,8.73
2023-08-17T18:57:50.753Z,6.28
2023-08-17T19:00:41.743Z,6.72
2023-08-17T19:03:31.679Z,7.53
2023-08-17T19:06:20.955Z,8.35
2023-08-17T19:09:09.732Z,7.85
2023-08-17T19:11:58.446Z,7.10
2023-08-17T19:14:48.035Z,8.57
2023-08-17T19:17:38.894Z,5.72
2023-08-17T19:20:27.750Z,6.20
2023-08-17T19:23:16.600Z,5.60
2023-08-17T19:26:06.818Z,6.00
2023-08-17T19:28:56.282Z,6.15
2023-08-17T19:31:45.307Z,5.55
2023-08-17T19:34:37.986Z,5.95
2023-08-17T19:37:27.349Z,5.35
2023-08-17T19:40:19.093Z,5.18
2023-08-17T19:43:08.055Z,5.40
2023-08-17T19:45:57.066Z,5.40
2023-08-17T19:48:45.960Z,5.70
2023-08-17T19:51:36.176Z,5.93
2023-08-17T19:54:24.920Z,6.03
2023-08-17T19:57:16.138Z,5.57
2023-08-17T20:00:06.881Z,6.47
2023-08-17T20:03:01.883Z,5.90
2023-08-17T20:05:51.100Z,6.13
2023-08-17T20:08:41.723Z,5.88
2023-08-17T20:11:30.424Z,5.70
2023-08-17T20:14:21.194Z,5.97
2023-08-17T20:17:12.381Z,6.00
2023-08-17T20:20:01.199Z,6.00
2023-08-17T20:22:49.889Z,6.18
2023-08-17T20:25:40.110Z,6.78
2023-08-17T20:28:28.944Z,6.55
2023-08-17T20:31:17.836Z,6.93
2023-08-17T20:34:07.036Z,7.07
2023-08-17T20:36:58.770Z,7.03
2023-08-17T20:39:47.886Z,6.97
2023-08-17T20:42:38.064Z,6.80
2023-08-17T20:45:27.001Z,7.55
2023-08-17T20:48:15.817Z,7.00
2023-08-17T20:51:06.581Z,7.45
2023-08-17T20:53:58.638Z,7.57
2023-08-17T20:56:47.450Z,7.72
2023-08-17T20:59:37.850Z,7.40
2023-08-17T21:02:27.928Z,8.27
2023-08-17T21:05:17.007Z,8.18
2023-08-17T21:08:06.442Z,7.57
2023-08-17T21:10:55.636Z,7.95
2023-08-17T21:13:44.451Z,7.20
2023-08-17T21:16:35.264Z,7.82
2023-08-17T21:19:25.167Z,7.35
2023-08-17T21:22:14.309Z,7.50
2023-08-17T21:25:03.999Z,7.93
2023-08-17T21:27:52.768Z,7.28
2023-08-17T21:30:41.653Z,7.50
2023-08-17T21:33:32.069Z,7.57
2023-08-17T21:36:21.227Z,8.27
2023-08-17T21:39:10.506Z,7.47
2023-08-17T21:41:59.224Z,8.48
2023-08-17T21:44:48.221Z,7.80
2023-08-17T21:47:37.393Z,8.73
2023-08-17T21:50:27.785Z,8.20
2023-08-17T21:53:16.586Z,8.75
2023-08-17T21:56:06.093Z,8.55
2023-08-17T21:58:57.529Z,8.30
2023-08-17T22:01:46.220Z,7.47
2023-08-17T22:04:35.175Z,8.48
2023-08-17T22:07:25.702Z,8.10
2023-08-17T22:10:14.991Z,8.23
2023-08-17T22:13:04.063Z,7.03
2023-08-17T22:15:53.108Z,7.72
2023-08-17T22:18:42.600Z,7.45
2023-08-17T22:21:31.883Z,7.38
2023-08-17T22:24:22.286Z,6.93
2023-08-17T22:27:11.270Z,8.20
2023-08-17T22:30:00.140Z,7.18
2023-08-17T22:32:49.292Z,7.45
2023-08-17T22:35:38.163Z,7.35
2023-08-17T22:38:26.854Z,7.60
2023-08-17T22:41:16.865Z,7.00
2023-08-17T22:44:06.457Z,7.45
2023-08-17T22:46:57.358Z,7.47
2023-08-17T22:49:46.136Z,7.20
2023-08-17T22:52:35.098Z,8.10
2023-08-17T22:55:24.448Z,8.32
2023-08-17T22:58:16.016Z,8.43
2023-08-17T23:01:05.184Z,8.23
2023-08-17T23:03:54.143Z,8.57
2023-08-17T23:06:43.132Z,8.27
2023-08-17T23:09:32.846Z,7.78
2023-08-17T23:12:21.635Z,8.35
2023-08-17T23:15:12.317Z,8.38
2023-08-17T23:18:01.264Z,7.95
2023-08-17T23:20:50.251Z,8.00
2023-08-17T23:23:39.329Z,8.15
2023-08-17T23:26:28.120Z,8.52
2023-08-17T23:29:18.811Z,8.73
2023-08-17T23:32:26.209Z,7.95
2023-08-17T23:35:16.548Z,8.10
2023-08-17T23:38:05.994Z,8.02
2023-08-17T23:40:57.599Z,8.00
2023-08-17T23:43:46.476Z,8.32
2023-08-17T23:46:35.538Z,8.27
2023-08-17T23:49:25.834Z,8.40
2023-08-17T23:52:14.555Z,8.32
2023-08-17T23:55:04.391Z,8.50
2023-08-17T23:57:53.936Z,8.23
